• Join FlightAware (Why Join?)
  • Login
  • US Flag 
10:49PM EST


 

Airport Tracker/Info


-or-


 

Live Flight TrackerFlight Track Log ✈ N5213F ✈ 17-Apr-2014 ✈ KLGB - KAJO

Flight Track Log - Related Links

Times and Time Zones

All times are in EDT time to prevent confusion due to time zone crossing. See the N5213F flight status page for this flight to view local times or setup timezone preferences in your user account.

Time Position Orientation Groundspeed Altitude Reporting Facility
EDT Latitude Longitude Course Direction KTS MPH feet Rate Location/Type
04:09PM 33.8333 -118.1667 239° Southwest 78 90 800  Level Southern California TRACON
04:10PM 33.8167 -118.2000 239° Southwest 87 100 1,500 600 Climbing Southern California TRACON
04:11PM 33.7997 -118.2153 217° Southwest 84 97 2,000 660 Climbing Los Angeles Center
04:12PM 33.7806 -118.2242 201° Southwest 82 94 2,800 660 Climbing Los Angeles Center
04:13PM 33.7769 -118.2067 104° East 73 84 3,400 480 Climbing Los Angeles Center
04:14PM 33.7808 -118.1839 78° East 68 78 3,800 420 Climbing Los Angeles Center
04:15PM 33.7861 -118.1461 80° East 83 96 4,300 420 Climbing Los Angeles Center
04:16PM 33.7833 -118.1167 96° East 95 109 4,700 300 Climbing Southern California TRACON
04:17PM 33.7833 -118.0833 90° East 92 106 5,000 120 Climbing Southern California TRACON
04:18PM 33.7833 -118.0500 90° East 101 116 5,000  Level Southern California TRACON
04:19PM 33.8000 -118.0167 59° Northeast 98 113 5,000  Level Southern California TRACON
04:20PM 33.8000 -117.9833 90° East 92 106 5,000  Level Southern California TRACON
04:21PM 33.8167 -117.9500 59° Northeast 97 112 5,000  Level Southern California TRACON
04:22PM 33.8167 -117.9167 90° East 100 115 5,000  Level Southern California TRACON
04:23PM 33.8333 -117.8833 59° Northeast 99 114 5,000  Level Southern California TRACON
04:24PM 33.8500 -117.8667 40° Northeast 116 133 5,000  Level Southern California TRACON
04:25PM 33.8667 -117.8500 40° Northeast 122 140 5,000  Level Southern California TRACON
04:26PM 33.8833 -117.8167 59° Northeast 111 128 5,100  Climbing Southern California TRACON
04:27PM 33.9000 -117.7833 59° Northeast 112 129 5,000 -240 Descending Southern California TRACON
04:28PM 33.9000 -117.7500 90° East 108 124 4,700 -540 Descending Southern California TRACON
04:29PM 33.9000 -117.7000 90° East 106 122 4,000 -600 Descending Southern California TRACON
04:30PM 33.9000 -117.6667 90° East 107 123 3,500 -300 Descending Southern California TRACON
04:31PM 33.9000 -117.6333 90° East 91 105 3,500 -60 Level Southern California TRACON
04:32PM 33.9167 -117.6167 40° Northeast 84 97 3,400  Descending Southern California TRACON
04:33PM 33.9167 -117.5833 90° East 96 110 3,500  Climbing Southern California TRACON
04:34PM 33.9167 -117.5500 90° East 99 114 3,500  Level Southern California TRACON
04:35PM 33.9167 -117.5167 90° East 100 115 3,500 -60 Level Southern California TRACON
04:36PM 33.9333 -117.5000 40° Northeast 82 94 3,400  Descending Southern California TRACON
04:37PM 33.9333 -117.4833 90° East 96 110 3,500 60 Climbing Southern California TRACON